createdAt,value
2022-11-30T00:01:24.542Z,18.90
2022-11-30T00:03:56.933Z,17.80
2022-11-30T00:06:25.040Z,19.00
2022-11-30T00:08:57.395Z,22.90
2022-11-30T00:11:27.833Z,25.00
2022-11-30T00:13:55.422Z,24.70
2022-11-30T00:16:23.148Z,22.90
2022-11-30T00:18:51.012Z,24.00
2022-11-30T00:21:19.279Z,24.70
2022-11-30T00:23:47.639Z,23.90
2022-11-30T00:26:21.968Z,21.60
2022-11-30T00:28:50.265Z,19.70
2022-11-30T00:31:19.477Z,21.60
2022-11-30T00:33:47.208Z,24.50
2022-11-30T00:36:17.770Z,25.30
2022-11-30T00:38:46.932Z,28.70
2022-11-30T00:41:15.885Z,27.00
2022-11-30T00:43:43.974Z,23.10
2022-11-30T00:46:11.532Z,20.70
2022-11-30T00:48:39.864Z,23.20
2022-11-30T00:51:09.389Z,25.30
2022-11-30T00:53:37.355Z,22.10
2022-11-30T00:56:07.669Z,25.20
2022-11-30T00:58:35.109Z,24.60
2022-11-30T01:01:03.068Z,26.70
2022-11-30T01:03:30.457Z,21.50
2022-11-30T01:06:06.504Z,22.80
2022-11-30T01:08:34.287Z,21.30
2022-11-30T01:11:22.710Z,22.60
2022-11-30T01:13:50.920Z,21.50
2022-11-30T01:16:25.575Z,20.10
2022-11-30T01:18:53.196Z,19.80
2022-11-30T01:21:24.300Z,18.60
2022-11-30T01:23:51.675Z,18.70
2022-11-30T01:26:19.106Z,16.60
2022-11-30T01:28:54.272Z,19.00
2022-11-30T01:31:24.148Z,20.30
2022-11-30T01:33:54.111Z,18.10
2022-11-30T01:36:27.591Z,20.10
2022-11-30T01:38:57.219Z,20.50
2022-11-30T01:41:31.141Z,15.00
2022-11-30T01:44:20.302Z,15.00
2022-11-30T01:47:04.990Z,12.60
2022-11-30T01:50:02.327Z,18.10
2022-11-30T01:52:39.323Z,21.00
2022-11-30T01:55:15.284Z,16.00
2022-11-30T01:57:49.032Z,18.40
2022-11-30T02:00:17.740Z,18.70
2022-11-30T02:03:17.933Z,18.70
2022-11-30T02:05:45.746Z,18.70
2022-11-30T02:08:13.521Z,23.40
2022-11-30T02:10:44.616Z,20.50
2022-11-30T02:13:17.891Z,24.60
2022-11-30T02:16:30.527Z,19.50
2022-11-30T02:19:03.741Z,16.30
2022-11-30T02:22:26.371Z,18.80
2022-11-30T02:25:47.965Z,19.10
2022-11-30T02:28:42.456Z,15.60
2022-11-30T02:31:16.445Z,22.00
2022-11-30T02:33:46.234Z,21.50
2022-11-30T02:36:13.744Z,16.90
2022-11-30T02:38:41.927Z,19.40
2022-11-30T02:41:09.389Z,20.10
2022-11-30T02:43:36.978Z,17.60
2022-11-30T02:46:35.756Z,16.90
2022-11-30T02:49:19.699Z,18.10
2022-11-30T02:51:48.147Z,17.70
2022-11-30T02:54:17.864Z,12.20
2022-11-30T02:56:46.869Z,16.00
2022-11-30T02:59:14.496Z,17.80
2022-11-30T03:01:42.009Z,18.70
2022-11-30T03:04:09.343Z,16.60
2022-11-30T03:06:36.629Z,16.80
2022-11-30T03:09:04.257Z,15.70
2022-11-30T03:11:31.989Z,16.90
2022-11-30T03:13:59.702Z,15.60
2022-11-30T03:16:27.343Z,16.10
2022-11-30T03:22:05.253Z,17.90
2022-11-30T03:24:34.122Z,15.70
2022-11-30T03:27:02.842Z,16.90
2022-11-30T03:29:31.782Z,17.00
2022-11-30T03:32:00.682Z,16.50
2022-11-30T03:34:30.480Z,17.00
2022-11-30T03:36:59.308Z,16.30
2022-11-30T03:39:28.110Z,13.60
2022-11-30T03:41:57.128Z,11.80
2022-11-30T03:44:26.068Z,12.90
2022-11-30T03:46:55.068Z,17.40
2022-11-30T03:49:24.255Z,16.50
2022-11-30T03:51:54.458Z,16.10
2022-11-30T03:54:23.309Z,12.50
2022-11-30T03:56:52.326Z,12.90
2022-11-30T03:59:21.093Z,13.50
2022-11-30T04:01:50.210Z,14.20
2022-11-30T04:04:19.179Z,12.40
2022-11-30T04:06:48.179Z,12.10
2022-11-30T04:09:16.971Z,13.30
2022-11-30T04:11:46.074Z,14.70
2022-11-30T04:14:15.060Z,12.40
2022-11-30T04:16:44.088Z,12.90
2022-11-30T04:19:13.742Z,12.70
2022-11-30T04:21:42.721Z,8.00
2022-11-30T04:24:11.623Z,12.70
2022-11-30T04:26:40.646Z,12.90
2022-11-30T04:29:11.635Z,16.10
2022-11-30T04:31:40.582Z,16.60
2022-11-30T04:34:10.348Z,12.90
2022-11-30T04:36:39.315Z,16.50
2022-11-30T04:39:08.162Z,14.80
2022-11-30T04:41:37.117Z,13.30
2022-11-30T04:44:05.978Z,16.10
2022-11-30T04:46:34.966Z,15.20
2022-11-30T04:49:04.196Z,13.50
2022-11-30T04:51:32.924Z,15.40
2022-11-30T04:54:01.787Z,10.90
2022-11-30T04:56:30.709Z,12.10
2022-11-30T04:59:01.677Z,13.30
2022-11-30T05:01:30.818Z,14.20
2022-11-30T05:04:00.570Z,11.60
2022-11-30T05:06:29.946Z,14.30
2022-11-30T05:08:59.000Z,9.00
2022-11-30T05:11:28.158Z,11.80
2022-11-30T05:13:57.010Z,14.50
2022-11-30T05:16:26.601Z,12.10
2022-11-30T05:18:55.688Z,13.30
2022-11-30T05:21:24.842Z,12.70
2022-11-30T05:23:53.979Z,11.60
2022-11-30T05:26:24.027Z,12.50
2022-11-30T05:28:53.627Z,13.70
2022-11-30T05:31:23.657Z,10.60
2022-11-30T05:33:54.181Z,12.60
2022-11-30T05:36:23.340Z,13.20
2022-11-30T05:38:52.390Z,12.40
2022-11-30T05:41:21.877Z,8.70
2022-11-30T05:43:50.943Z,9.50
2022-11-30T05:46:20.332Z,13.70
2022-11-30T05:48:49.341Z,10.70
2022-11-30T05:51:20.466Z,13.40
2022-11-30T05:53:50.072Z,10.60
2022-11-30T05:56:21.916Z,11.70
2022-11-30T05:58:51.124Z,13.70
2022-11-30T06:01:26.283Z,11.00
2022-11-30T06:03:57.115Z,10.00
2022-11-30T06:06:54.148Z,9.80
2022-11-30T06:09:39.226Z,11.30
2022-11-30T06:12:21.903Z,9.30
2022-11-30T06:15:20.175Z,10.70
2022-11-30T06:17:53.005Z,11.50
2022-11-30T06:20:36.979Z,11.60
2022-11-30T06:23:33.123Z,12.90
2022-11-30T06:26:56.482Z,11.70
2022-11-30T06:33:49.197Z,16.10
2022-11-30T06:35:10.364Z,14.10
2022-11-30T06:37:12.588Z,14.00
2022-11-30T06:40:28.841Z,13.30
2022-11-30T06:43:05.878Z,8.80
2022-11-30T06:45:57.896Z,12.70
2022-11-30T06:48:53.660Z,9.80
2022-11-30T06:56:05.300Z,14.30
2022-11-30T07:00:06.958Z,15.20
2022-11-30T07:07:51.267Z,18.10
2022-11-30T07:10:54.620Z,15.40
2022-11-30T07:14:00.077Z,20.30
2022-11-30T07:17:38.044Z,19.20
2022-11-30T07:20:13.926Z,16.90
2022-11-30T07:23:22.781Z,19.50
2022-11-30T07:30:03.339Z,15.00
2022-11-30T07:32:59.537Z,13.40
2022-11-30T07:36:13.686Z,11.50
2022-11-30T07:38:50.600Z,14.00
2022-11-30T07:42:08.538Z,14.70
2022-11-30T07:44:51.376Z,18.50
2022-11-30T07:47:48.310Z,16.80
2022-11-30T07:50:24.854Z,17.10
2022-11-30T07:52:58.154Z,10.00
2022-11-30T07:55:46.939Z,13.20
2022-11-30T08:01:54.957Z,10.30
2022-11-30T08:08:10.828Z,13.30
2022-11-30T08:11:39.597Z,11.50
2022-11-30T08:15:18.819Z,11.40
2022-11-30T08:21:51.486Z,11.80
2022-11-30T08:24:21.191Z,10.30
2022-11-30T08:27:02.931Z,11.00
2022-11-30T08:29:59.628Z,10.40
2022-11-30T08:32:28.352Z,10.80
2022-11-30T08:34:57.999Z,6.60
2022-11-30T08:37:31.311Z,9.70
2022-11-30T08:40:14.202Z,4.90
2022-11-30T08:42:53.028Z,12.00
2022-11-30T08:45:39.407Z,15.10
2022-11-30T08:48:33.873Z,14.00
2022-11-30T08:51:47.537Z,13.30
2022-11-30T08:54:51.211Z,10.50
2022-11-30T08:57:42.115Z,12.60
2022-11-30T09:00:36.127Z,14.00
2022-11-30T09:03:39.918Z,13.00
2022-11-30T09:06:32.564Z,15.40
2022-11-30T09:09:18.316Z,11.90
2022-11-30T09:11:54.344Z,9.80
2022-11-30T09:25:31.260Z,13.40
2022-11-30T09:28:34.691Z,12.80
2022-11-30T09:32:04.137Z,13.70
2022-11-30T09:35:12.751Z,11.30
2022-11-30T09:38:24.293Z,13.20
2022-11-30T09:41:31.506Z,17.30
2022-11-30T09:48:55.983Z,12.40
2022-11-30T09:51:48.138Z,7.50
2022-11-30T09:54:23.985Z,11.50
2022-11-30T09:56:53.250Z,12.60
2022-11-30T09:59:28.472Z,13.10
2022-11-30T10:02:15.975Z,12.20
2022-11-30T10:04:52.836Z,13.30
2022-11-30T10:08:21.312Z,11.40
2022-11-30T10:25:12.043Z,17.00
2022-11-30T10:29:29.974Z,18.30
2022-11-30T10:33:08.897Z,9.10
2022-11-30T10:36:22.749Z,10.90
2022-11-30T10:39:39.546Z,13.60
2022-11-30T10:43:50.179Z,12.00
2022-11-30T10:46:58.640Z,10.40
2022-11-30T10:49:45.248Z,6.90
2022-11-30T10:52:43.688Z,12.90
2022-11-30T10:56:11.347Z,10.80
2022-11-30T10:59:46.152Z,12.20
2022-11-30T11:02:56.292Z,14.20
2022-11-30T11:06:41.945Z,8.70
2022-11-30T11:09:56.993Z,7.30
2022-11-30T11:12:31.485Z,7.60
2022-11-30T11:15:44.825Z,6.10
2022-11-30T11:31:01.222Z,10.30
2022-11-30T11:33:32.223Z,8.80
2022-11-30T11:39:38.310Z,14.70
2022-11-30T11:46:22.351Z,15.60
2022-11-30T11:50:02.770Z,11.40
2022-11-30T11:52:48.296Z,13.70
2022-11-30T11:55:30.155Z,14.40
2022-11-30T11:58:03.687Z,12.40
2022-11-30T12:00:44.752Z,13.20
2022-11-30T12:04:21.784Z,11.50
2022-11-30T12:06:59.785Z,9.20
2022-11-30T12:10:49.497Z,9.80
2022-11-30T12:13:23.083Z,11.90
2022-11-30T12:16:50.575Z,12.30
2022-11-30T12:20:15.229Z,11.40
2022-11-30T12:23:56.463Z,11.30
2022-11-30T12:27:15.457Z,8.50
2022-11-30T12:30:46.428Z,14.50
2022-11-30T12:33:49.713Z,17.70
2022-11-30T12:37:44.384Z,16.40
2022-11-30T12:41:32.106Z,13.80
2022-11-30T12:44:42.076Z,17.30
2022-11-30T12:48:02.738Z,18.20
2022-11-30T12:51:33.125Z,16.60
2022-11-30T12:55:17.992Z,13.30
2022-11-30T12:58:42.184Z,14.60
2022-11-30T13:01:52.798Z,11.40
2022-11-30T13:04:57.780Z,15.40
2022-11-30T13:09:01.680Z,16.40
2022-11-30T13:11:54.192Z,16.70
2022-11-30T13:14:37.658Z,14.30
2022-11-30T13:17:32.873Z,15.70
2022-11-30T13:20:39.535Z,13.20
2022-11-30T13:23:47.214Z,10.00
2022-11-30T13:29:55.423Z,14.70
2022-11-30T13:33:29.455Z,15.20
2022-11-30T13:37:03.578Z,12.50
2022-11-30T13:40:33.301Z,12.80
2022-11-30T13:51:19.663Z,14.80
2022-11-30T13:55:21.452Z,14.40
2022-11-30T13:58:00.722Z,11.70
2022-11-30T14:08:50.352Z,12.50
2022-11-30T14:12:45.710Z,15.40
2022-11-30T14:16:27.809Z,11.20
2022-11-30T14:19:18.552Z,12.60
2022-11-30T14:22:47.057Z,13.80
2022-11-30T14:26:15.126Z,16.70
2022-11-30T14:29:59.150Z,12.90
2022-11-30T14:32:43.301Z,13.00
2022-11-30T14:35:20.972Z,11.90
2022-11-30T14:37:56.465Z,12.10
2022-11-30T14:40:35.395Z,12.30
2022-11-30T14:43:10.025Z,11.70
2022-11-30T14:45:42.174Z,6.20
2022-11-30T14:48:17.816Z,10.60
2022-11-30T14:50:55.457Z,11.30
2022-11-30T14:59:19.407Z,19.30
2022-11-30T15:02:56.112Z,12.80
2022-11-30T15:07:11.435Z,11.80
2022-11-30T15:10:00.695Z,13.10
2022-11-30T15:13:07.863Z,12.00
2022-11-30T15:16:50.751Z,12.40
2022-11-30T15:19:48.107Z,11.20
2022-11-30T15:22:46.520Z,11.60
2022-11-30T15:26:02.454Z,11.60
2022-11-30T15:29:17.121Z,12.10
2022-11-30T15:31:57.323Z,11.50
2022-11-30T15:35:03.039Z,11.60
2022-11-30T15:37:41.565Z,12.20
2022-11-30T15:40:43.303Z,10.50
2022-11-30T15:44:19.159Z,11.70
2022-11-30T15:48:26.205Z,10.60
2022-11-30T15:52:06.985Z,10.40
2022-11-30T15:55:08.804Z,11.10
2022-11-30T16:01:28.374Z,8.50
2022-11-30T16:03:57.799Z,14.60
2022-11-30T16:06:45.552Z,12.10
2022-11-30T16:09:33.313Z,10.80
2022-11-30T16:12:02.407Z,11.10
2022-11-30T16:14:31.523Z,11.90
2022-11-30T16:17:05.505Z,10.00
2022-11-30T16:19:38.302Z,13.20
2022-11-30T16:22:11.970Z,11.10
2022-11-30T16:24:40.421Z,12.80
2022-11-30T16:27:19.761Z,12.20
2022-11-30T16:29:52.378Z,11.40
2022-11-30T16:32:20.937Z,12.80
2022-11-30T16:34:48.984Z,12.00
2022-11-30T16:37:16.853Z,14.00
2022-11-30T16:39:45.576Z,14.10
2022-11-30T16:42:14.097Z,13.00
2022-11-30T16:44:43.159Z,14.20
2022-11-30T16:47:11.337Z,12.40
2022-11-30T16:49:42.076Z,11.90
2022-11-30T16:52:16.005Z,13.10
2022-11-30T16:54:45.084Z,13.30
2022-11-30T16:57:14.488Z,10.30
2022-11-30T16:59:45.483Z,12.80
2022-11-30T17:02:22.655Z,12.10
2022-11-30T17:04:50.776Z,11.10
2022-11-30T17:07:19.293Z,12.70
2022-11-30T17:09:48.371Z,13.60
2022-11-30T17:12:15.804Z,13.50
2022-11-30T17:14:44.459Z,13.60
2022-11-30T17:17:17.428Z,13.60
2022-11-30T17:19:51.970Z,12.70
2022-11-30T17:25:42.167Z,12.90
2022-11-30T17:28:10.207Z,14.00
2022-11-30T17:34:48.368Z,13.70
2022-11-30T17:44:51.498Z,11.80
2022-11-30T17:47:26.130Z,12.20
2022-11-30T17:49:55.167Z,12.20
2022-11-30T17:52:24.014Z,12.80
2022-11-30T17:54:53.166Z,11.30
2022-11-30T17:57:22.233Z,12.40
2022-11-30T17:59:51.008Z,13.30
2022-11-30T18:02:30.553Z,11.90
2022-11-30T18:05:05.619Z,12.90
2022-11-30T18:07:34.924Z,12.70
2022-11-30T18:10:04.322Z,12.20
2022-11-30T18:12:33.637Z,13.30
2022-11-30T18:15:02.966Z,11.60
2022-11-30T18:17:36.308Z,11.80
2022-11-30T18:20:07.467Z,11.80
2022-11-30T18:22:37.374Z,11.30
2022-11-30T18:25:07.471Z,11.00
2022-11-30T18:27:37.546Z,9.20
2022-11-30T18:30:12.431Z,7.50
2022-11-30T18:32:41.696Z,10.30
2022-11-30T18:35:13.419Z,12.80
2022-11-30T18:37:43.085Z,13.00
2022-11-30T18:40:13.707Z,12.60
2022-11-30T22:37:42.966Z,11.20
2022-11-30T22:40:12.963Z,8.30
2022-11-30T22:42:41.928Z,10.70
2022-11-30T22:45:11.000Z,9.80
2022-11-30T22:47:40.041Z,9.90
2022-11-30T22:50:09.477Z,9.80
2022-11-30T22:53:02.103Z,8.70
2022-11-30T22:55:27.435Z,7.60
2022-11-30T22:57:56.184Z,8.30
2022-11-30T23:00:25.226Z,7.80
2022-11-30T23:02:54.005Z,10.60
2022-11-30T23:05:22.960Z,10.10
2022-11-30T23:07:51.924Z,9.70
2022-11-30T23:10:20.772Z,11.70
2022-11-30T23:12:59.586Z,11.90
2022-11-30T23:15:29.319Z,9.40
2022-11-30T23:17:58.197Z,11.30
2022-11-30T23:20:27.051Z,7.70
2022-11-30T23:22:55.890Z,10.20
2022-11-30T23:25:32.420Z,10.70
2022-11-30T23:28:04.928Z,7.80
2022-11-30T23:30:33.891Z,9.70
2022-11-30T23:33:03.320Z,10.00
2022-11-30T23:35:32.245Z,10.60
2022-11-30T23:38:01.742Z,8.90
2022-11-30T23:40:30.538Z,9.80
2022-11-30T23:42:59.299Z,10.30
2022-11-30T23:45:31.599Z,8.90
2022-11-30T23:48:00.482Z,8.60
2022-11-30T23:50:29.471Z,9.90
2022-11-30T23:52:58.467Z,10.30
2022-11-30T23:55:27.281Z,10.40
2022-11-30T23:57:55.987Z,8.10
